sensor_id;sensor_type;location;lat;lon;timestamp;P1;durP1;ratioP1;P2;durP2;ratioP2
55314;SDS011;41619;42.816;23.226;2023-05-10T00:00:32;7.18;;;6.00;;
55314;SDS011;41619;42.816;23.226;2023-05-10T00:02:57;7.70;;;6.35;;
55314;SDS011;41619;42.816;23.226;2023-05-10T00:05:23;9.07;;;6.05;;
55314;SDS011;41619;42.816;23.226;2023-05-10T00:07:48;6.30;;;5.35;;
55314;SDS011;41619;42.816;23.226;2023-05-10T00:10:13;7.57;;;6.13;;
55314;SDS011;41619;42.816;23.226;2023-05-10T00:12:39;7.32;;;5.70;;
55314;SDS011;41619;42.816;23.226;2023-05-10T00:15:04;12.82;;;5.88;;
55314;SDS011;41619;42.816;23.226;2023-05-10T00:17:31;5.47;;;4.68;;
55314;SDS011;41619;42.816;23.226;2023-05-10T00:19:56;6.10;;;5.05;;
55314;SDS011;41619;42.816;23.226;2023-05-10T00:22:21;7.22;;;4.95;;
55314;SDS011;41619;42.816;23.226;2023-05-10T00:24:47;7.38;;;5.63;;
55314;SDS011;41619;42.816;23.226;2023-05-10T00:27:12;6.05;;;4.70;;
55314;SDS011;41619;42.816;23.226;2023-05-10T00:29:37;8.82;;;5.10;;
55314;SDS011;41619;42.816;23.226;2023-05-10T00:32:03;5.20;;;4.70;;
55314;SDS011;41619;42.816;23.226;2023-05-10T00:34:28;5.20;;;4.70;;
55314;SDS011;41619;42.816;23.226;2023-05-10T00:36:54;7.00;;;5.10;;
55314;SDS011;41619;42.816;23.226;2023-05-10T00:39:19;7.20;;;5.57;;
55314;SDS011;41619;42.816;23.226;2023-05-10T00:41:45;7.55;;;5.65;;
55314;SDS011;41619;42.816;23.226;2023-05-10T00:44:10;7.65;;;5.65;;
55314;SDS011;41619;42.816;23.226;2023-05-10T00:46:36;7.05;;;6.05;;
55314;SDS011;41619;42.816;23.226;2023-05-10T00:49:01;6.85;;;6.15;;
55314;SDS011;41619;42.816;23.226;2023-05-10T00:51:27;8.70;;;6.82;;
55314;SDS011;41619;42.816;23.226;2023-05-10T00:53:52;7.65;;;6.55;;
55314;SDS011;41619;42.816;23.226;2023-05-10T00:56:18;8.13;;;6.85;;
55314;SDS011;41619;42.816;23.226;2023-05-10T00:58:47;12.07;;;7.07;;
55314;SDS011;41619;42.816;23.226;2023-05-10T01:01:13;7.28;;;6.57;;
55314;SDS011;41619;42.816;23.226;2023-05-10T01:03:39;9.98;;;7.05;;
55314;SDS011;41619;42.816;23.226;2023-05-10T01:06:05;8.73;;;7.00;;
55314;SDS011;41619;42.816;23.226;2023-05-10T01:08:30;9.30;;;7.22;;
55314;SDS011;41619;42.816;23.226;2023-05-10T01:10:56;10.15;;;6.97;;
55314;SDS011;41619;42.816;23.226;2023-05-10T01:13:37;13.05;;;7.93;;
55314;SDS011;41619;42.816;23.226;2023-05-10T01:16:04;9.52;;;8.00;;
55314;SDS011;41619;42.816;23.226;2023-05-10T01:18:33;12.02;;;7.68;;
55314;SDS011;41619;42.816;23.226;2023-05-10T01:24:03;9.43;;;8.18;;
55314;SDS011;41619;42.816;23.226;2023-05-10T01:26:57;10.88;;;7.82;;
55314;SDS011;41619;42.816;23.226;2023-05-10T01:33:09;10.55;;;8.27;;
55314;SDS011;41619;42.816;23.226;2023-05-10T01:37:52;9.00;;;7.88;;
55314;SDS011;41619;42.816;23.226;2023-05-10T01:40:32;13.30;;;9.30;;
55314;SDS011;41619;42.816;23.226;2023-05-10T01:43:03;13.50;;;9.15;;
55314;SDS011;41619;42.816;23.226;2023-05-10T01:48:25;11.50;;;9.55;;
55314;SDS011;41619;42.816;23.226;2023-05-10T01:50:53;11.05;;;9.18;;
55314;SDS011;41619;42.816;23.226;2023-05-10T01:53:19;10.75;;;9.25;;
55314;SDS011;41619;42.816;23.226;2023-05-10T01:55:47;12.65;;;9.38;;
55314;SDS011;41619;42.816;23.226;2023-05-10T02:01:01;10.57;;;8.35;;
55314;SDS011;41619;42.816;23.226;2023-05-10T02:03:29;10.67;;;9.57;;
55314;SDS011;41619;42.816;23.226;2023-05-10T02:05:57;15.60;;;10.27;;
55314;SDS011;41619;42.816;23.226;2023-05-10T02:08:24;13.07;;;10.38;;
55314;SDS011;41619;42.816;23.226;2023-05-10T02:10:50;14.95;;;10.10;;
55314;SDS011;41619;42.816;23.226;2023-05-10T02:13:18;14.25;;;11.02;;
55314;SDS011;41619;42.816;23.226;2023-05-10T02:15:46;13.77;;;11.07;;
55314;SDS011;41619;42.816;23.226;2023-05-10T02:20:39;12.75;;;11.13;;
55314;SDS011;41619;42.816;23.226;2023-05-10T02:23:06;13.98;;;12.02;;
55314;SDS011;41619;42.816;23.226;2023-05-10T02:25:33;18.67;;;12.10;;
55314;SDS011;41619;42.816;23.226;2023-05-10T02:28:01;12.18;;;10.75;;
55314;SDS011;41619;42.816;23.226;2023-05-10T02:30:30;16.80;;;11.40;;
55314;SDS011;41619;42.816;23.226;2023-05-10T02:32:57;14.43;;;11.93;;
55314;SDS011;41619;42.816;23.226;2023-05-10T02:35:24;16.10;;;11.98;;
55314;SDS011;41619;42.816;23.226;2023-05-10T02:37:51;14.50;;;12.05;;
55314;SDS011;41619;42.816;23.226;2023-05-10T02:40:18;14.88;;;11.70;;
55314;SDS011;41619;42.816;23.226;2023-05-10T02:42:45;13.35;;;11.00;;
55314;SDS011;41619;42.816;23.226;2023-05-10T02:45:14;15.93;;;10.53;;
55314;SDS011;41619;42.816;23.226;2023-05-10T02:47:43;12.20;;;9.43;;
55314;SDS011;41619;42.816;23.226;2023-05-10T02:50:08;11.32;;;9.98;;
55314;SDS011;41619;42.816;23.226;2023-05-10T02:52:37;13.02;;;10.07;;
55314;SDS011;41619;42.816;23.226;2023-05-10T02:55:05;11.45;;;8.63;;
55314;SDS011;41619;42.816;23.226;2023-05-10T02:57:38;10.70;;;8.45;;
55314;SDS011;41619;42.816;23.226;2023-05-10T03:00:08;9.38;;;8.23;;
55314;SDS011;41619;42.816;23.226;2023-05-10T03:02:34;9.95;;;7.80;;
55314;SDS011;41619;42.816;23.226;2023-05-10T03:04:59;9.15;;;7.20;;
55314;SDS011;41619;42.816;23.226;2023-05-10T03:07:24;9.13;;;7.45;;
55314;SDS011;41619;42.816;23.226;2023-05-10T03:09:50;10.70;;;7.32;;
55314;SDS011;41619;42.816;23.226;2023-05-10T03:17:39;12.77;;;6.72;;
55314;SDS011;41619;42.816;23.226;2023-05-10T03:20:12;10.73;;;7.25;;
55314;SDS011;41619;42.816;23.226;2023-05-10T03:22:55;15.07;;;7.40;;
55314;SDS011;41619;42.816;23.226;2023-05-10T03:25:37;13.38;;;7.30;;
55314;SDS011;41619;42.816;23.226;2023-05-10T03:28:03;12.65;;;7.82;;
55314;SDS011;41619;42.816;23.226;2023-05-10T03:30:30;9.57;;;7.53;;
55314;SDS011;41619;42.816;23.226;2023-05-10T03:32:56;9.38;;;7.90;;
55314;SDS011;41619;42.816;23.226;2023-05-10T03:35:22;12.73;;;7.95;;
55314;SDS011;41619;42.816;23.226;2023-05-10T03:37:48;14.23;;;8.20;;
55314;SDS011;41619;42.816;23.226;2023-05-10T03:40:14;11.52;;;7.63;;
55314;SDS011;41619;42.816;23.226;2023-05-10T03:42:39;12.02;;;7.38;;
55314;SDS011;41619;42.816;23.226;2023-05-10T03:45:05;8.63;;;7.35;;
55314;SDS011;41619;42.816;23.226;2023-05-10T03:47:31;11.52;;;8.20;;
55314;SDS011;41619;42.816;23.226;2023-05-10T03:49:56;13.57;;;7.88;;
55314;SDS011;41619;42.816;23.226;2023-05-10T03:52:22;10.93;;;7.32;;
55314;SDS011;41619;42.816;23.226;2023-05-10T03:54:47;16.75;;;8.07;;
55314;SDS011;41619;42.816;23.226;2023-05-10T03:57:12;14.68;;;7.40;;
55314;SDS011;41619;42.816;23.226;2023-05-10T03:59:38;14.70;;;7.82;;
55314;SDS011;41619;42.816;23.226;2023-05-10T04:02:03;9.80;;;6.82;;
55314;SDS011;41619;42.816;23.226;2023-05-10T04:04:28;9.23;;;6.63;;
55314;SDS011;41619;42.816;23.226;2023-05-10T04:06:54;10.35;;;6.95;;
55314;SDS011;41619;42.816;23.226;2023-05-10T04:09:19;8.38;;;6.38;;
55314;SDS011;41619;42.816;23.226;2023-05-10T04:11:45;8.27;;;6.57;;
55314;SDS011;41619;42.816;23.226;2023-05-10T04:14:10;13.57;;;6.68;;
55314;SDS011;41619;42.816;23.226;2023-05-10T04:16:35;12.80;;;7.72;;
55314;SDS011;41619;42.816;23.226;2023-05-10T04:19:01;13.20;;;8.48;;
55314;SDS011;41619;42.816;23.226;2023-05-10T04:21:26;13.23;;;8.80;;
55314;SDS011;41619;42.816;23.226;2023-05-10T04:23:52;8.05;;;6.20;;
55314;SDS011;41619;42.816;23.226;2023-05-10T04:26:17;11.70;;;8.10;;
55314;SDS011;41619;42.816;23.226;2023-05-10T04:28:42;11.00;;;7.70;;
55314;SDS011;41619;42.816;23.226;2023-05-10T04:31:09;13.15;;;7.78;;
55314;SDS011;41619;42.816;23.226;2023-05-10T04:33:35;12.25;;;7.13;;
55314;SDS011;41619;42.816;23.226;2023-05-10T04:36:01;12.50;;;7.70;;
55314;SDS011;41619;42.816;23.226;2023-05-10T04:38:27;14.65;;;8.10;;
55314;SDS011;41619;42.816;23.226;2023-05-10T04:40:53;12.73;;;7.90;;
55314;SDS011;41619;42.816;23.226;2023-05-10T04:43:18;12.80;;;7.93;;
55314;SDS011;41619;42.816;23.226;2023-05-10T04:45:44;11.80;;;8.48;;
55314;SDS011;41619;42.816;23.226;2023-05-10T04:48:10;11.95;;;7.63;;
55314;SDS011;41619;42.816;23.226;2023-05-10T04:50:35;15.57;;;8.50;;
55314;SDS011;41619;42.816;23.226;2023-05-10T04:53:01;12.65;;;8.35;;
55314;SDS011;41619;42.816;23.226;2023-05-10T04:55:27;13.82;;;8.73;;
55314;SDS011;41619;42.816;23.226;2023-05-10T04:57:52;10.23;;;7.72;;
55314;SDS011;41619;42.816;23.226;2023-05-10T05:00:21;12.90;;;8.45;;
55314;SDS011;41619;42.816;23.226;2023-05-10T05:02:47;11.77;;;8.70;;
55314;SDS011;41619;42.816;23.226;2023-05-10T05:05:12;15.93;;;9.23;;
55314;SDS011;41619;42.816;23.226;2023-05-10T05:07:38;14.75;;;8.48;;
55314;SDS011;41619;42.816;23.226;2023-05-10T05:10:04;12.38;;;8.10;;
55314;SDS011;41619;42.816;23.226;2023-05-10T05:12:31;13.43;;;8.52;;
55314;SDS011;41619;42.816;23.226;2023-05-10T05:14:56;11.90;;;8.25;;
55314;SDS011;41619;42.816;23.226;2023-05-10T05:17:22;18.80;;;10.00;;
55314;SDS011;41619;42.816;23.226;2023-05-10T05:19:47;65.45;;;29.90;;
55314;SDS011;41619;42.816;23.226;2023-05-10T05:22:12;16.38;;;10.60;;
55314;SDS011;41619;42.816;23.226;2023-05-10T05:24:38;14.02;;;8.55;;
55314;SDS011;41619;42.816;23.226;2023-05-10T05:27:03;10.70;;;7.40;;
55314;SDS011;41619;42.816;23.226;2023-05-10T05:29:29;11.02;;;7.20;;
55314;SDS011;41619;42.816;23.226;2023-05-10T05:31:54;10.98;;;7.38;;
55314;SDS011;41619;42.816;23.226;2023-05-10T05:34:20;13.43;;;8.75;;
55314;SDS011;41619;42.816;23.226;2023-05-10T05:36:46;12.93;;;7.43;;
55314;SDS011;41619;42.816;23.226;2023-05-10T05:39:12;9.90;;;7.05;;
55314;SDS011;41619;42.816;23.226;2023-05-10T05:41:37;12.07;;;7.00;;
55314;SDS011;41619;42.816;23.226;2023-05-10T05:44:02;11.10;;;7.53;;
55314;SDS011;41619;42.816;23.226;2023-05-10T05:46:28;12.25;;;8.02;;
55314;SDS011;41619;42.816;23.226;2023-05-10T05:48:53;9.15;;;7.10;;
55314;SDS011;41619;42.816;23.226;2023-05-10T05:51:19;9.15;;;6.47;;
55314;SDS011;41619;42.816;23.226;2023-05-10T05:53:44;11.82;;;6.80;;
55314;SDS011;41619;42.816;23.226;2023-05-10T05:56:10;11.23;;;7.03;;
55314;SDS011;41619;42.816;23.226;2023-05-10T05:58:35;10.65;;;6.55;;
55314;SDS011;41619;42.816;23.226;2023-05-10T06:01:00;14.15;;;7.00;;
55314;SDS011;41619;42.816;23.226;2023-05-10T06:03:26;10.30;;;7.03;;
55314;SDS011;41619;42.816;23.226;2023-05-10T06:05:51;10.10;;;7.20;;
55314;SDS011;41619;42.816;23.226;2023-05-10T06:08:17;10.90;;;7.13;;
55314;SDS011;41619;42.816;23.226;2023-05-10T06:10:42;11.63;;;7.72;;
55314;SDS011;41619;42.816;23.226;2023-05-10T06:13:07;13.43;;;7.38;;
55314;SDS011;41619;42.816;23.226;2023-05-10T06:15:33;12.05;;;7.63;;
55314;SDS011;41619;42.816;23.226;2023-05-10T06:17:59;10.45;;;7.63;;
55314;SDS011;41619;42.816;23.226;2023-05-10T06:20:25;16.88;;;8.30;;
55314;SDS011;41619;42.816;23.226;2023-05-10T06:22:50;13.50;;;7.40;;
55314;SDS011;41619;42.816;23.226;2023-05-10T06:25:16;16.65;;;7.85;;
55314;SDS011;41619;42.816;23.226;2023-05-10T06:27:42;16.23;;;8.57;;
55314;SDS011;41619;42.816;23.226;2023-05-10T06:30:08;16.60;;;8.27;;
55314;SDS011;41619;42.816;23.226;2023-05-10T06:32:34;17.35;;;8.68;;
55314;SDS011;41619;42.816;23.226;2023-05-10T06:35:00;16.35;;;7.40;;
55314;SDS011;41619;42.816;23.226;2023-05-10T06:37:25;18.15;;;10.15;;
55314;SDS011;41619;42.816;23.226;2023-05-10T06:39:50;10.80;;;7.40;;
55314;SDS011;41619;42.816;23.226;2023-05-10T06:42:16;13.60;;;7.65;;
55314;SDS011;41619;42.816;23.226;2023-05-10T06:44:41;10.93;;;7.80;;
55314;SDS011;41619;42.816;23.226;2023-05-10T06:47:07;8.27;;;6.32;;
55314;SDS011;41619;42.816;23.226;2023-05-10T06:49:32;9.65;;;7.32;;
55314;SDS011;41619;42.816;23.226;2023-05-10T06:51:57;15.05;;;6.57;;
55314;SDS011;41619;42.816;23.226;2023-05-10T06:54:23;12.82;;;6.75;;
55314;SDS011;41619;42.816;23.226;2023-05-10T06:56:48;11.88;;;6.72;;
55314;SDS011;41619;42.816;23.226;2023-05-10T06:59:13;9.60;;;7.25;;
55314;SDS011;41619;42.816;23.226;2023-05-10T07:01:41;9.20;;;6.18;;
55314;SDS011;41619;42.816;23.226;2023-05-10T07:04:06;11.38;;;7.68;;
55314;SDS011;41619;42.816;23.226;2023-05-10T07:06:32;10.05;;;5.80;;
55314;SDS011;41619;42.816;23.226;2023-05-10T07:08:58;13.15;;;6.63;;
55314;SDS011;41619;42.816;23.226;2023-05-10T07:11:24;6.35;;;5.63;;
55314;SDS011;41619;42.816;23.226;2023-05-10T07:13:49;13.82;;;6.82;;
55314;SDS011;41619;42.816;23.226;2023-05-10T07:16:15;7.68;;;6.20;;
55314;SDS011;41619;42.816;23.226;2023-05-10T07:18:40;8.27;;;6.03;;
55314;SDS011;41619;42.816;23.226;2023-05-10T07:21:05;13.00;;;6.43;;
55314;SDS011;41619;42.816;23.226;2023-05-10T07:23:31;11.20;;;6.80;;
55314;SDS011;41619;42.816;23.226;2023-05-10T07:25:56;13.95;;;7.13;;
55314;SDS011;41619;42.816;23.226;2023-05-10T07:28:22;13.95;;;6.72;;
55314;SDS011;41619;42.816;23.226;2023-05-10T07:30:49;10.40;;;6.95;;
55314;SDS011;41619;42.816;23.226;2023-05-10T07:33:15;25.10;;;11.18;;
55314;SDS011;41619;42.816;23.226;2023-05-10T07:35:40;28.40;;;10.93;;
55314;SDS011;41619;42.816;23.226;2023-05-10T07:38:06;54.35;;;20.52;;
55314;SDS011;41619;42.816;23.226;2023-05-10T07:40:32;10.75;;;7.82;;
55314;SDS011;41619;42.816;23.226;2023-05-10T07:42:57;11.80;;;7.95;;
55314;SDS011;41619;42.816;23.226;2023-05-10T07:45:24;11.98;;;7.43;;
55314;SDS011;41619;42.816;23.226;2023-05-10T07:47:50;8.75;;;6.47;;
55314;SDS011;41619;42.816;23.226;2023-05-10T07:50:15;14.95;;;6.50;;
55314;SDS011;41619;42.816;23.226;2023-05-10T07:52:41;10.40;;;6.80;;
55314;SDS011;41619;42.816;23.226;2023-05-10T07:55:06;11.73;;;6.78;;
55314;SDS011;41619;42.816;23.226;2023-05-10T07:57:35;9.77;;;6.57;;
55314;SDS011;41619;42.816;23.226;2023-05-10T08:00:01;10.75;;;7.10;;
55314;SDS011;41619;42.816;23.226;2023-05-10T08:02:27;9.73;;;6.50;;
55314;SDS011;41619;42.816;23.226;2023-05-10T08:04:53;11.32;;;7.13;;
55314;SDS011;41619;42.816;23.226;2023-05-10T08:07:18;10.82;;;8.13;;
55314;SDS011;41619;42.816;23.226;2023-05-10T08:09:43;10.07;;;7.82;;
55314;SDS011;41619;42.816;23.226;2023-05-10T08:12:09;10.00;;;7.47;;
55314;SDS011;41619;42.816;23.226;2023-05-10T08:14:34;12.05;;;8.55;;
55314;SDS011;41619;42.816;23.226;2023-05-10T08:17:01;10.90;;;7.70;;
55314;SDS011;41619;42.816;23.226;2023-05-10T08:19:28;12.25;;;8.13;;
55314;SDS011;41619;42.816;23.226;2023-05-10T08:21:53;10.57;;;7.22;;
55314;SDS011;41619;42.816;23.226;2023-05-10T08:24:20;11.43;;;8.07;;
55314;SDS011;41619;42.816;23.226;2023-05-10T08:26:46;14.52;;;8.27;;
55314;SDS011;41619;42.816;23.226;2023-05-10T08:29:12;11.27;;;8.48;;
55314;SDS011;41619;42.816;23.226;2023-05-10T08:31:38;11.50;;;7.88;;
55314;SDS011;41619;42.816;23.226;2023-05-10T08:34:04;12.63;;;8.52;;
55314;SDS011;41619;42.816;23.226;2023-05-10T08:36:29;14.98;;;9.50;;
55314;SDS011;41619;42.816;23.226;2023-05-10T08:38:55;18.75;;;10.68;;
55314;SDS011;41619;42.816;23.226;2023-05-10T08:41:20;49.15;;;19.13;;
55314;SDS011;41619;42.816;23.226;2023-05-10T08:43:47;17.98;;;11.75;;
55314;SDS011;41619;42.816;23.226;2023-05-10T08:46:16;21.33;;;9.00;;
55314;SDS011;41619;42.816;23.226;2023-05-10T08:48:43;12.95;;;9.38;;
55314;SDS011;41619;42.816;23.226;2023-05-10T08:51:11;12.07;;;8.63;;
55314;SDS011;41619;42.816;23.226;2023-05-10T08:53:39;15.32;;;9.05;;
55314;SDS011;41619;42.816;23.226;2023-05-10T08:56:04;15.27;;;8.20;;
55314;SDS011;41619;42.816;23.226;2023-05-10T08:58:30;16.98;;;9.77;;
55314;SDS011;41619;42.816;23.226;2023-05-10T09:00:56;9.85;;;8.60;;
55314;SDS011;41619;42.816;23.226;2023-05-10T09:03:22;16.00;;;9.60;;
55314;SDS011;41619;42.816;23.226;2023-05-10T09:05:48;11.48;;;7.55;;
55314;SDS011;41619;42.816;23.226;2023-05-10T09:08:14;20.58;;;9.98;;
55314;SDS011;41619;42.816;23.226;2023-05-10T09:10:41;13.63;;;8.70;;
55314;SDS011;41619;42.816;23.226;2023-05-10T09:13:12;12.43;;;8.10;;
55314;SDS011;41619;42.816;23.226;2023-05-10T09:15:40;10.88;;;7.70;;
55314;SDS011;41619;42.816;23.226;2023-05-10T09:18:05;14.80;;;7.80;;
55314;SDS011;41619;42.816;23.226;2023-05-10T09:20:31;10.65;;;8.10;;
55314;SDS011;41619;42.816;23.226;2023-05-10T09:22:56;11.40;;;8.55;;
55314;SDS011;41619;42.816;23.226;2023-05-10T09:25:21;10.70;;;7.13;;
55314;SDS011;41619;42.816;23.226;2023-05-10T09:27:47;12.88;;;7.72;;
55314;SDS011;41619;42.816;23.226;2023-05-10T09:30:17;9.95;;;7.68;;
55314;SDS011;41619;42.816;23.226;2023-05-10T09:32:44;12.60;;;7.50;;
55314;SDS011;41619;42.816;23.226;2023-05-10T09:37:37;15.48;;;8.55;;
55314;SDS011;41619;42.816;23.226;2023-05-10T09:40:06;11.50;;;10.05;;
55314;SDS011;41619;42.816;23.226;2023-05-10T09:42:33;16.95;;;10.02;;
55314;SDS011;41619;42.816;23.226;2023-05-10T09:45:05;17.80;;;10.25;;
55314;SDS011;41619;42.816;23.226;2023-05-10T09:47:34;18.55;;;10.80;;
55314;SDS011;41619;42.816;23.226;2023-05-10T09:50:01;16.45;;;11.98;;
55314;SDS011;41619;42.816;23.226;2023-05-10T09:52:29;12.13;;;10.27;;
55314;SDS011;41619;42.816;23.226;2023-05-10T09:55:12;12.98;;;8.95;;
55314;SDS011;41619;42.816;23.226;2023-05-10T09:57:38;13.88;;;9.13;;
55314;SDS011;41619;42.816;23.226;2023-05-10T10:00:04;14.30;;;9.00;;
55314;SDS011;41619;42.816;23.226;2023-05-10T10:02:31;13.50;;;8.23;;
55314;SDS011;41619;42.816;23.226;2023-05-10T10:04:57;16.02;;;7.88;;
55314;SDS011;41619;42.816;23.226;2023-05-10T10:07:23;12.65;;;7.80;;
55314;SDS011;41619;42.816;23.226;2023-05-10T10:09:52;14.13;;;9.48;;
55314;SDS011;41619;42.816;23.226;2023-05-10T10:12:18;11.93;;;8.55;;
55314;SDS011;41619;42.816;23.226;2023-05-10T10:14:45;12.60;;;7.82;;
55314;SDS011;41619;42.816;23.226;2023-05-10T10:17:12;10.90;;;7.72;;
55314;SDS011;41619;42.816;23.226;2023-05-10T10:19:38;14.07;;;7.97;;
55314;SDS011;41619;42.816;23.226;2023-05-10T10:22:04;10.60;;;8.70;;
55314;SDS011;41619;42.816;23.226;2023-05-10T10:24:30;12.07;;;8.38;;
55314;SDS011;41619;42.816;23.226;2023-05-10T10:26:56;15.98;;;8.30;;
55314;SDS011;41619;42.816;23.226;2023-05-10T10:32:12;11.05;;;7.18;;
55314;SDS011;41619;42.816;23.226;2023-05-10T10:34:45;10.23;;;7.35;;
55314;SDS011;41619;42.816;23.226;2023-05-10T10:37:11;10.38;;;7.35;;
55314;SDS011;41619;42.816;23.226;2023-05-10T10:39:37;11.98;;;8.73;;
55314;SDS011;41619;42.816;23.226;2023-05-10T10:42:03;12.32;;;8.00;;
55314;SDS011;41619;42.816;23.226;2023-05-10T10:47:05;15.02;;;8.35;;
55314;SDS011;41619;42.816;23.226;2023-05-10T10:49:36;13.43;;;8.00;;
55314;SDS011;41619;42.816;23.226;2023-05-10T10:57:25;11.35;;;7.13;;
55314;SDS011;41619;42.816;23.226;2023-05-10T10:59:51;14.05;;;7.38;;
55314;SDS011;41619;42.816;23.226;2023-05-10T11:07:53;15.60;;;7.10;;
55314;SDS011;41619;42.816;23.226;2023-05-10T11:10:21;10.65;;;7.35;;
55314;SDS011;41619;42.816;23.226;2023-05-10T11:12:59;16.38;;;5.75;;
55314;SDS011;41619;42.816;23.226;2023-05-10T11:15:29;10.82;;;7.55;;
55314;SDS011;41619;42.816;23.226;2023-05-10T11:23:31;7.10;;;5.43;;
55314;SDS011;41619;42.816;23.226;2023-05-10T11:26:12;6.88;;;5.10;;
55314;SDS011;41619;42.816;23.226;2023-05-10T11:28:44;6.68;;;5.00;;
55314;SDS011;41619;42.816;23.226;2023-05-10T11:31:15;10.70;;;4.93;;
55314;SDS011;41619;42.816;23.226;2023-05-10T11:36:14;10.15;;;5.72;;
55314;SDS011;41619;42.816;23.226;2023-05-10T11:38:41;10.15;;;5.68;;
55314;SDS011;41619;42.816;23.226;2023-05-10T11:41:10;8.48;;;5.30;;
55314;SDS011;41619;42.816;23.226;2023-05-10T11:43:37;8.90;;;5.55;;
55314;SDS011;41619;42.816;23.226;2023-05-10T11:46:04;8.73;;;5.03;;
55314;SDS011;41619;42.816;23.226;2023-05-10T11:48:31;12.95;;;5.97;;
55314;SDS011;41619;42.816;23.226;2023-05-10T11:50:57;13.13;;;6.03;;
55314;SDS011;41619;42.816;23.226;2023-05-10T11:53:23;8.00;;;5.20;;
55314;SDS011;41619;42.816;23.226;2023-05-10T11:55:50;11.07;;;5.78;;
55314;SDS011;41619;42.816;23.226;2023-05-10T11:58:17;8.30;;;7.47;;
55314;SDS011;41619;42.816;23.226;2023-05-10T12:00:43;14.40;;;8.90;;
55314;SDS011;41619;42.816;23.226;2023-05-10T12:03:10;16.35;;;8.25;;
55314;SDS011;41619;42.816;23.226;2023-05-10T12:05:36;10.77;;;5.53;;
55314;SDS011;41619;42.816;23.226;2023-05-10T12:08:11;10.93;;;5.15;;
55314;SDS011;41619;42.816;23.226;2023-05-10T12:10:40;9.43;;;6.03;;
55314;SDS011;41619;42.816;23.226;2023-05-10T12:13:10;9.45;;;5.72;;
55314;SDS011;41619;42.816;23.226;2023-05-10T12:15:39;9.93;;;5.95;;
55314;SDS011;41619;42.816;23.226;2023-05-10T12:18:05;11.25;;;6.03;;
55314;SDS011;41619;42.816;23.226;2023-05-10T12:20:30;12.00;;;7.10;;
55314;SDS011;41619;42.816;23.226;2023-05-10T12:22:57;12.38;;;7.22;;
55314;SDS011;41619;42.816;23.226;2023-05-10T12:25:34;10.02;;;6.18;;
55314;SDS011;41619;42.816;23.226;2023-05-10T12:28:02;12.45;;;6.93;;
55314;SDS011;41619;42.816;23.226;2023-05-10T12:30:30;12.70;;;7.47;;
55314;SDS011;41619;42.816;23.226;2023-05-10T12:33:13;14.95;;;8.18;;
55314;SDS011;41619;42.816;23.226;2023-05-10T12:35:43;31.60;;;12.65;;
55314;SDS011;41619;42.816;23.226;2023-05-10T12:38:24;40.15;;;18.35;;
55314;SDS011;41619;42.816;23.226;2023-05-10T12:40:50;17.77;;;11.85;;
55314;SDS011;41619;42.816;23.226;2023-05-10T12:43:16;18.65;;;11.10;;
55314;SDS011;41619;42.816;23.226;2023-05-10T12:45:41;12.10;;;9.57;;
55314;SDS011;41619;42.816;23.226;2023-05-10T12:48:06;14.75;;;7.30;;
55314;SDS011;41619;42.816;23.226;2023-05-10T12:50:32;13.98;;;8.15;;
55314;SDS011;41619;42.816;23.226;2023-05-10T12:52:57;15.35;;;8.75;;
55314;SDS011;41619;42.816;23.226;2023-05-10T12:55:23;12.88;;;8.80;;
55314;SDS011;41619;42.816;23.226;2023-05-10T12:57:48;12.70;;;8.52;;
55314;SDS011;41619;42.816;23.226;2023-05-10T13:00:14;16.98;;;8.73;;
55314;SDS011;41619;42.816;23.226;2023-05-10T13:02:39;22.98;;;9.63;;
55314;SDS011;41619;42.816;23.226;2023-05-10T13:05:05;15.68;;;8.35;;
55314;SDS011;41619;42.816;23.226;2023-05-10T13:07:31;13.63;;;8.77;;
55314;SDS011;41619;42.816;23.226;2023-05-10T13:09:56;19.30;;;9.27;;
55314;SDS011;41619;42.816;23.226;2023-05-10T13:12:21;16.02;;;8.43;;
55314;SDS011;41619;42.816;23.226;2023-05-10T13:14:47;13.10;;;8.68;;
55314;SDS011;41619;42.816;23.226;2023-05-10T13:17:12;17.75;;;7.80;;
55314;SDS011;41619;42.816;23.226;2023-05-10T13:19:38;13.02;;;8.75;;
55314;SDS011;41619;42.816;23.226;2023-05-10T13:22:03;15.60;;;9.65;;
55314;SDS011;41619;42.816;23.226;2023-05-10T13:24:28;14.82;;;10.05;;
55314;SDS011;41619;42.816;23.226;2023-05-10T13:26:54;10.60;;;8.35;;
55314;SDS011;41619;42.816;23.226;2023-05-10T13:29:19;13.75;;;8.13;;
55314;SDS011;41619;42.816;23.226;2023-05-10T13:31:45;16.88;;;9.68;;
55314;SDS011;41619;42.816;23.226;2023-05-10T13:34:11;13.85;;;9.00;;
55314;SDS011;41619;42.816;23.226;2023-05-10T13:36:36;15.90;;;8.02;;
55314;SDS011;41619;42.816;23.226;2023-05-10T13:39:02;12.80;;;8.65;;
55314;SDS011;41619;42.816;23.226;2023-05-10T13:41:28;11.82;;;8.15;;
55314;SDS011;41619;42.816;23.226;2023-05-10T13:43:53;12.05;;;6.78;;
55314;SDS011;41619;42.816;23.226;2023-05-10T13:46:19;13.35;;;7.53;;
55314;SDS011;41619;42.816;23.226;2023-05-10T13:48:44;10.05;;;6.78;;
55314;SDS011;41619;42.816;23.226;2023-05-10T13:51:10;12.50;;;7.32;;
55314;SDS011;41619;42.816;23.226;2023-05-10T13:53:35;10.23;;;7.43;;
55314;SDS011;41619;42.816;23.226;2023-05-10T13:56:01;12.27;;;7.70;;
55314;SDS011;41619;42.816;23.226;2023-05-10T13:58:27;14.30;;;8.30;;
55314;SDS011;41619;42.816;23.226;2023-05-10T14:00:53;16.08;;;9.02;;
55314;SDS011;41619;42.816;23.226;2023-05-10T14:03:18;18.30;;;10.48;;
55314;SDS011;41619;42.816;23.226;2023-05-10T14:05:43;11.57;;;8.25;;
55314;SDS011;41619;42.816;23.226;2023-05-10T14:08:10;17.67;;;11.35;;
55314;SDS011;41619;42.816;23.226;2023-05-10T14:10:35;33.30;;;19.02;;
55314;SDS011;41619;42.816;23.226;2023-05-10T14:13:01;25.70;;;15.43;;
55314;SDS011;41619;42.816;23.226;2023-05-10T14:15:28;30.85;;;17.88;;
55314;SDS011;41619;42.816;23.226;2023-05-10T14:17:53;21.23;;;12.80;;
55314;SDS011;41619;42.816;23.226;2023-05-10T14:20:18;20.20;;;10.80;;
55314;SDS011;41619;42.816;23.226;2023-05-10T14:22:44;28.63;;;16.58;;
55314;SDS011;41619;42.816;23.226;2023-05-10T14:25:10;25.73;;;11.88;;
55314;SDS011;41619;42.816;23.226;2023-05-10T14:27:35;29.20;;;16.25;;
55314;SDS011;41619;42.816;23.226;2023-05-10T14:30:01;31.95;;;14.48;;
55314;SDS011;41619;42.816;23.226;2023-05-10T14:32:27;38.05;;;17.83;;
55314;SDS011;41619;42.816;23.226;2023-05-10T14:34:52;24.58;;;13.45;;
55314;SDS011;41619;42.816;23.226;2023-05-10T14:37:18;52.20;;;21.55;;
55314;SDS011;41619;42.816;23.226;2023-05-10T14:39:43;14.00;;;10.70;;
55314;SDS011;41619;42.816;23.226;2023-05-10T14:42:09;16.63;;;9.27;;
55314;SDS011;41619;42.816;23.226;2023-05-10T14:44:34;19.83;;;9.80;;
55314;SDS011;41619;42.816;23.226;2023-05-10T14:46:59;17.50;;;9.23;;
55314;SDS011;41619;42.816;23.226;2023-05-10T14:49:25;14.15;;;9.25;;
55314;SDS011;41619;42.816;23.226;2023-05-10T14:51:51;10.82;;;8.02;;
55314;SDS011;41619;42.816;23.226;2023-05-10T14:54:17;15.88;;;9.30;;
55314;SDS011;41619;42.816;23.226;2023-05-10T14:56:42;13.77;;;8.68;;
55314;SDS011;41619;42.816;23.226;2023-05-10T14:59:07;17.17;;;10.30;;
55314;SDS011;41619;42.816;23.226;2023-05-10T15:01:33;12.68;;;8.07;;
55314;SDS011;41619;42.816;23.226;2023-05-10T15:04:02;11.43;;;9.20;;
55314;SDS011;41619;42.816;23.226;2023-05-10T15:06:31;15.43;;;8.27;;